Canmer, Kentucky
Current Conditions -  °F | °C
As of 5:55 AM on Thursday 29 Jan 2015 (Local Time) from KGLW Reporting Station
Light Rain Light Rain  
Wind Chill: 38°   Ceiling: 7500
Heat Index: 44°   Visibility: 10mi
Dew Point: 34°   Wind: 13mph
Humidity: 66%   Direction: 190°S
Pressure: 29.98"   Gusts: 21mph
Location:  37.29°N, 85.77°W
Report Text: KGLW 291155Z AUTO 19011G18KT 10SM -RA BKN075 OVC085 07/01 A2998 RMK AO2 P0003 60003 70003 T00690010 10073 20043
Loading
Personal Weather Stations






























Interactive Weather Map New forecast layout! Learn more

10-Day Weather Forecast

Advertisements
Track Severe Weather on mobile